sensor_id;sensor_type;location;lat;lon;timestamp;P1;durP1;ratioP1;P2;durP2;ratioP2
76380;SDS011;65202;52.520;10.528;2023-03-31T00:00:59;14.88;;;3.75;;
76380;SDS011;65202;52.520;10.528;2023-03-31T00:03:26;9.70;;;3.13;;
76380;SDS011;65202;52.520;10.528;2023-03-31T00:05:55;12.23;;;3.60;;
76380;SDS011;65202;52.520;10.528;2023-03-31T00:08:27;11.63;;;3.23;;
76380;SDS011;65202;52.520;10.528;2023-03-31T00:11:04;10.82;;;3.53;;
76380;SDS011;65202;52.520;10.528;2023-03-31T00:13:34;9.02;;;3.40;;
76380;SDS011;65202;52.520;10.528;2023-03-31T00:16:03;11.30;;;3.78;;
76380;SDS011;65202;52.520;10.528;2023-03-31T00:18:35;10.88;;;3.50;;
76380;SDS011;65202;52.520;10.528;2023-03-31T00:23:40;11.93;;;3.58;;
76380;SDS011;65202;52.520;10.528;2023-03-31T00:26:08;14.23;;;4.13;;
76380;SDS011;65202;52.520;10.528;2023-03-31T00:28:35;9.40;;;3.40;;
76380;SDS011;65202;52.520;10.528;2023-03-31T00:31:02;12.55;;;3.55;;
76380;SDS011;65202;52.520;10.528;2023-03-31T00:33:30;11.10;;;3.50;;
76380;SDS011;65202;52.520;10.528;2023-03-31T00:35:57;13.43;;;3.72;;
76380;SDS011;65202;52.520;10.528;2023-03-31T00:38:28;11.82;;;3.70;;
76380;SDS011;65202;52.520;10.528;2023-03-31T00:40:56;12.75;;;3.40;;
76380;SDS011;65202;52.520;10.528;2023-03-31T00:43:34;9.60;;;3.53;;
76380;SDS011;65202;52.520;10.528;2023-03-31T00:46:05;12.60;;;3.47;;
76380;SDS011;65202;52.520;10.528;2023-03-31T00:48:46;9.13;;;3.13;;
76380;SDS011;65202;52.520;10.528;2023-03-31T00:51:25;12.25;;;3.70;;
76380;SDS011;65202;52.520;10.528;2023-03-31T00:53:59;12.77;;;3.60;;
76380;SDS011;65202;52.520;10.528;2023-03-31T00:56:35;15.90;;;3.75;;
76380;SDS011;65202;52.520;10.528;2023-03-31T00:59:08;11.18;;;3.40;;
76380;SDS011;65202;52.520;10.528;2023-03-31T01:01:39;14.27;;;3.60;;
76380;SDS011;65202;52.520;10.528;2023-03-31T01:04:14;15.98;;;3.67;;
76380;SDS011;65202;52.520;10.528;2023-03-31T01:06:43;14.13;;;4.28;;
76380;SDS011;65202;52.520;10.528;2023-03-31T01:09:23;15.63;;;3.88;;
76380;SDS011;65202;52.520;10.528;2023-03-31T01:11:50;13.70;;;3.20;;
76380;SDS011;65202;52.520;10.528;2023-03-31T01:14:18;16.15;;;3.60;;
76380;SDS011;65202;52.520;10.528;2023-03-31T01:16:45;13.50;;;3.70;;
76380;SDS011;65202;52.520;10.528;2023-03-31T01:19:17;14.48;;;3.92;;
76380;SDS011;65202;52.520;10.528;2023-03-31T01:22:20;9.85;;;3.22;;
76380;SDS011;65202;52.520;10.528;2023-03-31T01:28:44;13.65;;;3.70;;
76380;SDS011;65202;52.520;10.528;2023-03-31T01:31:33;13.45;;;3.13;;
76380;SDS011;65202;52.520;10.528;2023-03-31T01:43:18;16.00;;;3.40;;
76380;SDS011;65202;52.520;10.528;2023-03-31T01:52:05;14.75;;;3.88;;
76380;SDS011;65202;52.520;10.528;2023-03-31T01:57:47;12.70;;;3.50;;
76380;SDS011;65202;52.520;10.528;2023-03-31T02:00:24;10.18;;;3.10;;
76380;SDS011;65202;52.520;10.528;2023-03-31T02:03:03;10.30;;;3.08;;
76380;SDS011;65202;52.520;10.528;2023-03-31T02:05:54;11.57;;;3.17;;
76380;SDS011;65202;52.520;10.528;2023-03-31T02:08:29;13.25;;;2.80;;
76380;SDS011;65202;52.520;10.528;2023-03-31T02:11:03;8.00;;;3.00;;
76380;SDS011;65202;52.520;10.528;2023-03-31T02:13:30;7.28;;;2.85;;
76380;SDS011;65202;52.520;10.528;2023-03-31T02:16:01;11.95;;;3.15;;
76380;SDS011;65202;52.520;10.528;2023-03-31T02:18:37;9.90;;;3.10;;
76380;SDS011;65202;52.520;10.528;2023-03-31T02:21:07;9.20;;;2.83;;
76380;SDS011;65202;52.520;10.528;2023-03-31T02:23:37;11.60;;;2.92;;
76380;SDS011;65202;52.520;10.528;2023-03-31T02:26:07;10.18;;;2.70;;
76380;SDS011;65202;52.520;10.528;2023-03-31T02:28:42;13.15;;;3.17;;
76380;SDS011;65202;52.520;10.528;2023-03-31T02:31:24;9.70;;;2.83;;
76380;SDS011;65202;52.520;10.528;2023-03-31T02:34:12;11.07;;;2.70;;
76380;SDS011;65202;52.520;10.528;2023-03-31T02:36:40;13.85;;;3.08;;
76380;SDS011;65202;52.520;10.528;2023-03-31T02:39:12;13.68;;;3.10;;
76380;SDS011;65202;52.520;10.528;2023-03-31T02:41:47;12.35;;;3.20;;
76380;SDS011;65202;52.520;10.528;2023-03-31T02:44:14;8.38;;;2.75;;
76380;SDS011;65202;52.520;10.528;2023-03-31T02:46:43;10.52;;;2.83;;
76380;SDS011;65202;52.520;10.528;2023-03-31T02:49:12;9.98;;;2.78;;
76380;SDS011;65202;52.520;10.528;2023-03-31T02:51:53;12.15;;;2.90;;
76380;SDS011;65202;52.520;10.528;2023-03-31T02:57:44;9.65;;;2.88;;
76380;SDS011;65202;52.520;10.528;2023-03-31T03:00:35;9.43;;;3.30;;
76380;SDS011;65202;52.520;10.528;2023-03-31T03:06:35;10.20;;;3.20;;
76380;SDS011;65202;52.520;10.528;2023-03-31T03:09:45;7.43;;;2.30;;
76380;SDS011;65202;52.520;10.528;2023-03-31T03:18:27;10.88;;;2.78;;
76380;SDS011;65202;52.520;10.528;2023-03-31T03:20:55;13.95;;;2.20;;
76380;SDS011;65202;52.520;10.528;2023-03-31T03:23:22;8.48;;;2.40;;
76380;SDS011;65202;52.520;10.528;2023-03-31T03:25:49;13.00;;;2.70;;
76380;SDS011;65202;52.520;10.528;2023-03-31T03:28:17;9.48;;;2.20;;
76380;SDS011;65202;52.520;10.528;2023-03-31T03:30:44;9.98;;;2.28;;
76380;SDS011;65202;52.520;10.528;2023-03-31T03:33:11;9.02;;;2.30;;
76380;SDS011;65202;52.520;10.528;2023-03-31T03:35:45;8.43;;;2.13;;
76380;SDS011;65202;52.520;10.528;2023-03-31T03:38:12;10.15;;;2.95;;
76380;SDS011;65202;52.520;10.528;2023-03-31T03:40:40;13.13;;;2.50;;
76380;SDS011;65202;52.520;10.528;2023-03-31T03:43:07;8.27;;;2.28;;
76380;SDS011;65202;52.520;10.528;2023-03-31T03:45:34;10.75;;;2.15;;
76380;SDS011;65202;52.520;10.528;2023-03-31T03:48:01;9.23;;;2.17;;
76380;SDS011;65202;52.520;10.528;2023-03-31T03:50:29;8.50;;;2.10;;
76380;SDS011;65202;52.520;10.528;2023-03-31T03:52:56;13.95;;;2.10;;
76380;SDS011;65202;52.520;10.528;2023-03-31T03:55:23;7.25;;;2.10;;
76380;SDS011;65202;52.520;10.528;2023-03-31T03:57:51;9.18;;;2.58;;
76380;SDS011;65202;52.520;10.528;2023-03-31T04:00:18;9.60;;;2.20;;
76380;SDS011;65202;52.520;10.528;2023-03-31T04:02:46;7.90;;;2.08;;
76380;SDS011;65202;52.520;10.528;2023-03-31T04:05:13;9.30;;;1.90;;
76380;SDS011;65202;52.520;10.528;2023-03-31T04:07:41;7.22;;;2.05;;
76380;SDS011;65202;52.520;10.528;2023-03-31T04:10:08;12.38;;;2.10;;
76380;SDS011;65202;52.520;10.528;2023-03-31T04:12:36;13.10;;;2.25;;
76380;SDS011;65202;52.520;10.528;2023-03-31T04:15:03;6.65;;;1.80;;
76380;SDS011;65202;52.520;10.528;2023-03-31T04:17:31;9.23;;;2.20;;
76380;SDS011;65202;52.520;10.528;2023-03-31T04:20:01;8.07;;;1.98;;
76380;SDS011;65202;52.520;10.528;2023-03-31T04:22:39;5.45;;;1.73;;
76380;SDS011;65202;52.520;10.528;2023-03-31T04:25:08;7.32;;;1.80;;
76380;SDS011;65202;52.520;10.528;2023-03-31T04:27:43;9.63;;;2.33;;
76380;SDS011;65202;52.520;10.528;2023-03-31T04:30:25;11.48;;;4.60;;
76380;SDS011;65202;52.520;10.528;2023-03-31T04:33:00;6.25;;;2.00;;
76380;SDS011;65202;52.520;10.528;2023-03-31T04:38:16;12.50;;;2.00;;
76380;SDS011;65202;52.520;10.528;2023-03-31T04:40:49;6.10;;;1.80;;
76380;SDS011;65202;52.520;10.528;2023-03-31T04:43:20;7.15;;;1.88;;
76380;SDS011;65202;52.520;10.528;2023-03-31T04:45:48;10.60;;;1.98;;
76380;SDS011;65202;52.520;10.528;2023-03-31T04:48:15;7.25;;;1.50;;
76380;SDS011;65202;52.520;10.528;2023-03-31T04:50:45;9.35;;;2.10;;
76380;SDS011;65202;52.520;10.528;2023-03-31T04:53:12;7.70;;;1.80;;
76380;SDS011;65202;52.520;10.528;2023-03-31T04:55:40;7.90;;;1.80;;
76380;SDS011;65202;52.520;10.528;2023-03-31T04:58:07;7.15;;;1.98;;
76380;SDS011;65202;52.520;10.528;2023-03-31T05:00:35;7.88;;;1.88;;
76380;SDS011;65202;52.520;10.528;2023-03-31T05:03:02;8.32;;;2.20;;
76380;SDS011;65202;52.520;10.528;2023-03-31T05:05:29;6.38;;;2.00;;
76380;SDS011;65202;52.520;10.528;2023-03-31T05:07:57;12.80;;;2.30;;
76380;SDS011;65202;52.520;10.528;2023-03-31T05:10:24;8.85;;;1.92;;
76380;SDS011;65202;52.520;10.528;2023-03-31T05:12:52;8.50;;;2.10;;
76380;SDS011;65202;52.520;10.528;2023-03-31T05:15:19;9.15;;;1.98;;
76380;SDS011;65202;52.520;10.528;2023-03-31T05:17:47;5.68;;;1.75;;
76380;SDS011;65202;52.520;10.528;2023-03-31T05:20:14;10.48;;;2.15;;
76380;SDS011;65202;52.520;10.528;2023-03-31T05:22:42;9.30;;;1.90;;
76380;SDS011;65202;52.520;10.528;2023-03-31T05:25:10;7.95;;;1.73;;
76380;SDS011;65202;52.520;10.528;2023-03-31T05:27:45;8.93;;;2.10;;
76380;SDS011;65202;52.520;10.528;2023-03-31T05:30:13;10.80;;;2.20;;
76380;SDS011;65202;52.520;10.528;2023-03-31T05:32:41;8.48;;;2.05;;
76380;SDS011;65202;52.520;10.528;2023-03-31T05:35:10;9.27;;;2.28;;
76380;SDS011;65202;52.520;10.528;2023-03-31T05:37:37;8.75;;;2.17;;
76380;SDS011;65202;52.520;10.528;2023-03-31T05:40:04;6.32;;;2.20;;
76380;SDS011;65202;52.520;10.528;2023-03-31T05:42:34;12.75;;;2.22;;
76380;SDS011;65202;52.520;10.528;2023-03-31T05:45:02;8.82;;;2.20;;
76380;SDS011;65202;52.520;10.528;2023-03-31T05:47:31;12.35;;;1.80;;
76380;SDS011;65202;52.520;10.528;2023-03-31T05:49:59;10.45;;;1.90;;
76380;SDS011;65202;52.520;10.528;2023-03-31T05:52:26;13.85;;;2.70;;
76380;SDS011;65202;52.520;10.528;2023-03-31T05:54:54;11.98;;;2.28;;
76380;SDS011;65202;52.520;10.528;2023-03-31T05:57:21;9.05;;;1.95;;
76380;SDS011;65202;52.520;10.528;2023-03-31T05:59:49;7.28;;;2.17;;
76380;SDS011;65202;52.520;10.528;2023-03-31T06:02:16;13.88;;;2.30;;
76380;SDS011;65202;52.520;10.528;2023-03-31T06:04:43;11.57;;;2.80;;
76380;SDS011;65202;52.520;10.528;2023-03-31T06:07:11;8.77;;;2.00;;
76380;SDS011;65202;52.520;10.528;2023-03-31T06:09:39;8.05;;;2.33;;
76380;SDS011;65202;52.520;10.528;2023-03-31T06:12:06;10.93;;;2.33;;
76380;SDS011;65202;52.520;10.528;2023-03-31T06:14:34;9.10;;;2.13;;
76380;SDS011;65202;52.520;10.528;2023-03-31T06:17:01;10.25;;;1.98;;
76380;SDS011;65202;52.520;10.528;2023-03-31T06:19:29;10.38;;;2.05;;
76380;SDS011;65202;52.520;10.528;2023-03-31T06:21:57;10.57;;;2.10;;
76380;SDS011;65202;52.520;10.528;2023-03-31T06:24:24;7.93;;;2.38;;
76380;SDS011;65202;52.520;10.528;2023-03-31T06:26:52;8.55;;;2.53;;
76380;SDS011;65202;52.520;10.528;2023-03-31T06:29:19;6.90;;;1.98;;
76380;SDS011;65202;52.520;10.528;2023-03-31T06:31:47;6.00;;;1.67;;
76380;SDS011;65202;52.520;10.528;2023-03-31T06:34:15;11.00;;;2.50;;
76380;SDS011;65202;52.520;10.528;2023-03-31T06:36:44;9.75;;;1.90;;
76380;SDS011;65202;52.520;10.528;2023-03-31T06:39:11;7.22;;;2.20;;
76380;SDS011;65202;52.520;10.528;2023-03-31T06:41:39;12.88;;;1.92;;
76380;SDS011;65202;52.520;10.528;2023-03-31T06:44:06;9.30;;;1.85;;
76380;SDS011;65202;52.520;10.528;2023-03-31T06:46:34;8.32;;;1.95;;
76380;SDS011;65202;52.520;10.528;2023-03-31T06:49:02;10.80;;;1.70;;
76380;SDS011;65202;52.520;10.528;2023-03-31T06:51:30;8.90;;;2.00;;
76380;SDS011;65202;52.520;10.528;2023-03-31T06:53:58;5.68;;;1.77;;
76380;SDS011;65202;52.520;10.528;2023-03-31T06:56:27;7.97;;;1.70;;
76380;SDS011;65202;52.520;10.528;2023-03-31T06:58:58;8.05;;;1.83;;
76380;SDS011;65202;52.520;10.528;2023-03-31T07:01:28;10.70;;;2.00;;
76380;SDS011;65202;52.520;10.528;2023-03-31T07:03:57;8.52;;;1.70;;
76380;SDS011;65202;52.520;10.528;2023-03-31T07:06:26;6.65;;;1.35;;
76380;SDS011;65202;52.520;10.528;2023-03-31T07:08:58;8.60;;;1.73;;
76380;SDS011;65202;52.520;10.528;2023-03-31T07:11:27;7.65;;;1.45;;
76380;SDS011;65202;52.520;10.528;2023-03-31T07:13:56;5.85;;;1.60;;
76380;SDS011;65202;52.520;10.528;2023-03-31T07:16:38;7.75;;;1.92;;
76380;SDS011;65202;52.520;10.528;2023-03-31T07:19:11;8.27;;;1.88;;
76380;SDS011;65202;52.520;10.528;2023-03-31T07:21:38;6.90;;;2.08;;
76380;SDS011;65202;52.520;10.528;2023-03-31T07:24:13;5.72;;;1.95;;
76380;SDS011;65202;52.520;10.528;2023-03-31T07:26:46;7.45;;;1.70;;
76380;SDS011;65202;52.520;10.528;2023-03-31T07:29:16;9.70;;;4.75;;
76380;SDS011;65202;52.520;10.528;2023-03-31T07:31:57;7.47;;;2.05;;
76380;SDS011;65202;52.520;10.528;2023-03-31T07:34:27;8.55;;;2.90;;
76380;SDS011;65202;52.520;10.528;2023-03-31T07:36:56;7.95;;;1.80;;
76380;SDS011;65202;52.520;10.528;2023-03-31T07:39:27;10.00;;;1.55;;
76380;SDS011;65202;52.520;10.528;2023-03-31T07:41:57;8.00;;;1.60;;
76380;SDS011;65202;52.520;10.528;2023-03-31T07:44:25;8.85;;;1.90;;
76380;SDS011;65202;52.520;10.528;2023-03-31T07:46:52;7.38;;;3.05;;
76380;SDS011;65202;52.520;10.528;2023-03-31T07:49:21;7.22;;;1.80;;
76380;SDS011;65202;52.520;10.528;2023-03-31T07:51:49;7.30;;;1.92;;
76380;SDS011;65202;52.520;10.528;2023-03-31T07:54:16;10.95;;;1.70;;
76380;SDS011;65202;52.520;10.528;2023-03-31T07:56:43;5.45;;;1.60;;
76380;SDS011;65202;52.520;10.528;2023-03-31T07:59:10;9.05;;;2.03;;
76380;SDS011;65202;52.520;10.528;2023-03-31T08:01:38;8.40;;;1.85;;
76380;SDS011;65202;52.520;10.528;2023-03-31T08:04:05;5.05;;;1.70;;
76380;SDS011;65202;52.520;10.528;2023-03-31T08:06:32;7.20;;;2.10;;
76380;SDS011;65202;52.520;10.528;2023-03-31T08:09:01;7.35;;;1.90;;
76380;SDS011;65202;52.520;10.528;2023-03-31T08:12:39;9.35;;;2.13;;
76380;SDS011;65202;52.520;10.528;2023-03-31T08:15:07;9.05;;;2.35;;
76380;SDS011;65202;52.520;10.528;2023-03-31T08:17:35;8.27;;;2.50;;
76380;SDS011;65202;52.520;10.528;2023-03-31T08:20:03;8.38;;;1.95;;
76380;SDS011;65202;52.520;10.528;2023-03-31T08:22:35;10.18;;;2.78;;
76380;SDS011;65202;52.520;10.528;2023-03-31T08:25:05;8.07;;;2.30;;
76380;SDS011;65202;52.520;10.528;2023-03-31T08:27:37;12.43;;;2.33;;
76380;SDS011;65202;52.520;10.528;2023-03-31T08:30:07;9.45;;;2.35;;
76380;SDS011;65202;52.520;10.528;2023-03-31T08:32:37;10.50;;;2.20;;
76380;SDS011;65202;52.520;10.528;2023-03-31T08:35:05;6.65;;;2.35;;
76380;SDS011;65202;52.520;10.528;2023-03-31T08:37:33;8.07;;;2.30;;
76380;SDS011;65202;52.520;10.528;2023-03-31T08:40:02;8.80;;;2.90;;
76380;SDS011;65202;52.520;10.528;2023-03-31T08:42:35;7.50;;;2.47;;
76380;SDS011;65202;52.520;10.528;2023-03-31T08:48:05;8.52;;;2.67;;
76380;SDS011;65202;52.520;10.528;2023-03-31T08:50:49;7.93;;;2.95;;
76380;SDS011;65202;52.520;10.528;2023-03-31T08:53:28;13.85;;;3.60;;
76380;SDS011;65202;52.520;10.528;2023-03-31T08:56:00;8.52;;;2.60;;
76380;SDS011;65202;52.520;10.528;2023-03-31T08:58:40;9.75;;;3.15;;
76380;SDS011;65202;52.520;10.528;2023-03-31T09:09:40;10.18;;;3.10;;
76380;SDS011;65202;52.520;10.528;2023-03-31T09:12:51;10.18;;;2.20;;
76380;SDS011;65202;52.520;10.528;2023-03-31T09:18:17;10.43;;;3.20;;
76380;SDS011;65202;52.520;10.528;2023-03-31T09:21:06;16.80;;;3.95;;
76380;SDS011;65202;52.520;10.528;2023-03-31T09:23:54;9.80;;;2.10;;
76380;SDS011;65202;52.520;10.528;2023-03-31T09:26:42;9.60;;;2.40;;
76380;SDS011;65202;52.520;10.528;2023-03-31T09:35:01;7.65;;;2.13;;
76380;SDS011;65202;52.520;10.528;2023-03-31T09:37:42;6.70;;;2.20;;
76380;SDS011;65202;52.520;10.528;2023-03-31T09:40:14;7.07;;;2.47;;
76380;SDS011;65202;52.520;10.528;2023-03-31T09:42:50;6.63;;;2.30;;
76380;SDS011;65202;52.520;10.528;2023-03-31T09:45:47;10.15;;;2.15;;
76380;SDS011;65202;52.520;10.528;2023-03-31T09:48:34;9.60;;;2.70;;
76380;SDS011;65202;52.520;10.528;2023-03-31T09:51:04;8.32;;;2.70;;
76380;SDS011;65202;52.520;10.528;2023-03-31T09:53:49;8.50;;;2.20;;
76380;SDS011;65202;52.520;10.528;2023-03-31T09:59:20;10.02;;;2.20;;
76380;SDS011;65202;52.520;10.528;2023-03-31T10:01:49;6.45;;;2.20;;
76380;SDS011;65202;52.520;10.528;2023-03-31T10:04:24;7.15;;;2.10;;
76380;SDS011;65202;52.520;10.528;2023-03-31T10:06:55;8.75;;;2.20;;
76380;SDS011;65202;52.520;10.528;2023-03-31T10:09:26;5.60;;;2.25;;
76380;SDS011;65202;52.520;10.528;2023-03-31T10:12:04;7.72;;;2.05;;
76380;SDS011;65202;52.520;10.528;2023-03-31T10:14:45;7.50;;;3.17;;
76380;SDS011;65202;52.520;10.528;2023-03-31T10:17:17;9.43;;;2.50;;
76380;SDS011;65202;52.520;10.528;2023-03-31T10:19:55;8.23;;;2.30;;
76380;SDS011;65202;52.520;10.528;2023-03-31T10:22:32;9.25;;;2.40;;
76380;SDS011;65202;52.520;10.528;2023-03-31T10:25:19;10.65;;;2.15;;
76380;SDS011;65202;52.520;10.528;2023-03-31T10:27:55;5.07;;;1.95;;
76380;SDS011;65202;52.520;10.528;2023-03-31T10:30:32;6.07;;;1.98;;
76380;SDS011;65202;52.520;10.528;2023-03-31T10:33:04;7.93;;;2.55;;
76380;SDS011;65202;52.520;10.528;2023-03-31T10:35:49;5.35;;;1.90;;
76380;SDS011;65202;52.520;10.528;2023-03-31T10:38:26;7.32;;;2.25;;
76380;SDS011;65202;52.520;10.528;2023-03-31T10:41:08;5.95;;;2.30;;
76380;SDS011;65202;52.520;10.528;2023-03-31T10:43:40;9.13;;;2.78;;
76380;SDS011;65202;52.520;10.528;2023-03-31T10:46:13;6.78;;;2.08;;
76380;SDS011;65202;52.520;10.528;2023-03-31T10:48:40;8.63;;;2.33;;
76380;SDS011;65202;52.520;10.528;2023-03-31T10:51:11;9.15;;;2.28;;
76380;SDS011;65202;52.520;10.528;2023-03-31T10:53:46;7.32;;;2.53;;
76380;SDS011;65202;52.520;10.528;2023-03-31T11:10:47;5.22;;;2.03;;
76380;SDS011;65202;52.520;10.528;2023-03-31T11:13:25;9.00;;;2.45;;
76380;SDS011;65202;52.520;10.528;2023-03-31T11:16:22;9.98;;;2.70;;
76380;SDS011;65202;52.520;10.528;2023-03-31T11:31:31;8.48;;;2.25;;
76380;SDS011;65202;52.520;10.528;2023-03-31T11:34:13;9.60;;;2.95;;
76380;SDS011;65202;52.520;10.528;2023-03-31T11:46:12;6.33;;;1.80;;
76380;SDS011;65202;52.520;10.528;2023-03-31T11:51:27;6.60;;;2.33;;
76380;SDS011;65202;52.520;10.528;2023-03-31T11:54:19;7.80;;;3.17;;
76380;SDS011;65202;52.520;10.528;2023-03-31T11:57:22;6.95;;;2.10;;
76380;SDS011;65202;52.520;10.528;2023-03-31T12:00:04;5.35;;;2.63;;
76380;SDS011;65202;52.520;10.528;2023-03-31T12:02:57;8.75;;;4.60;;
76380;SDS011;65202;52.520;10.528;2023-03-31T12:05:47;6.63;;;2.25;;
76380;SDS011;65202;52.520;10.528;2023-03-31T12:08:34;6.97;;;2.75;;
76380;SDS011;65202;52.520;10.528;2023-03-31T12:14:16;4.93;;;2.00;;
76380;SDS011;65202;52.520;10.528;2023-03-31T12:19:53;5.38;;;2.03;;
76380;SDS011;65202;52.520;10.528;2023-03-31T12:22:39;6.20;;;1.60;;
76380;SDS011;65202;52.520;10.528;2023-03-31T12:25:14;3.17;;;1.50;;
76380;SDS011;65202;52.520;10.528;2023-03-31T12:27:49;8.30;;;1.75;;
76380;SDS011;65202;52.520;10.528;2023-03-31T12:30:19;4.28;;;1.80;;
76380;SDS011;65202;52.520;10.528;2023-03-31T12:33:05;10.95;;;4.85;;
76380;SDS011;65202;52.520;10.528;2023-03-31T12:38:54;5.93;;;2.90;;
76380;SDS011;65202;52.520;10.528;2023-03-31T12:44:56;7.30;;;1.70;;
76380;SDS011;65202;52.520;10.528;2023-03-31T12:47:52;4.05;;;1.83;;
76380;SDS011;65202;52.520;10.528;2023-03-31T12:50:29;4.47;;;2.80;;
76380;SDS011;65202;52.520;10.528;2023-03-31T12:53:19;6.20;;;2.10;;
76380;SDS011;65202;52.520;10.528;2023-03-31T12:56:05;4.63;;;2.58;;
76380;SDS011;65202;52.520;10.528;2023-03-31T12:58:40;7.15;;;4.10;;
76380;SDS011;65202;52.520;10.528;2023-03-31T13:01:10;5.03;;;3.70;;
76380;SDS011;65202;52.520;10.528;2023-03-31T13:04:25;5.32;;;3.38;;
76380;SDS011;65202;52.520;10.528;2023-03-31T13:06:54;4.68;;;2.40;;
76380;SDS011;65202;52.520;10.528;2023-03-31T13:09:41;4.03;;;2.17;;
76380;SDS011;65202;52.520;10.528;2023-03-31T13:12:13;4.68;;;2.20;;
76380;SDS011;65202;52.520;10.528;2023-03-31T13:14:45;6.15;;;3.28;;
76380;SDS011;65202;52.520;10.528;2023-03-31T13:20:16;4.13;;;2.00;;
76380;SDS011;65202;52.520;10.528;2023-03-31T13:23:01;4.10;;;1.95;;
76380;SDS011;65202;52.520;10.528;2023-03-31T13:30:50;5.32;;;2.20;;
76380;SDS011;65202;52.520;10.528;2023-03-31T13:44:50;4.47;;;2.25;;
76380;SDS011;65202;52.520;10.528;2023-03-31T13:47:42;4.20;;;2.53;;
76380;SDS011;65202;52.520;10.528;2023-03-31T13:50:52;5.22;;;3.40;;
76380;SDS011;65202;52.520;10.528;2023-03-31T13:57:39;3.45;;;2.40;;
76380;SDS011;65202;52.520;10.528;2023-03-31T14:06:49;4.30;;;2.22;;
76380;SDS011;65202;52.520;10.528;2023-03-31T14:09:48;6.32;;;2.88;;
76380;SDS011;65202;52.520;10.528;2023-03-31T14:12:32;3.92;;;2.28;;
76380;SDS011;65202;52.520;10.528;2023-03-31T14:17:34;4.15;;;2.05;;
76380;SDS011;65202;52.520;10.528;2023-03-31T14:20:12;6.00;;;2.50;;
76380;SDS011;65202;52.520;10.528;2023-03-31T14:26:06;6.43;;;2.05;;
76380;SDS011;65202;52.520;10.528;2023-03-31T14:35:30;4.15;;;2.00;;
76380;SDS011;65202;52.520;10.528;2023-03-31T14:38:05;8.02;;;2.55;;
76380;SDS011;65202;52.520;10.528;2023-03-31T14:40:48;5.72;;;2.22;;
76380;SDS011;65202;52.520;10.528;2023-03-31T14:43:24;5.30;;;2.40;;
76380;SDS011;65202;52.520;10.528;2023-03-31T14:45:57;8.07;;;2.35;;
76380;SDS011;65202;52.520;10.528;2023-03-31T14:48:45;20.02;;;6.47;;
76380;SDS011;65202;52.520;10.528;2023-03-31T14:51:15;12.20;;;4.45;;
76380;SDS011;65202;52.520;10.528;2023-03-31T14:53:58;10.73;;;2.58;;
76380;SDS011;65202;52.520;10.528;2023-03-31T14:56:36;6.72;;;2.10;;
76380;SDS011;65202;52.520;10.528;2023-03-31T14:59:06;5.13;;;2.05;;
76380;SDS011;65202;52.520;10.528;2023-03-31T15:01:34;6.28;;;3.03;;
76380;SDS011;65202;52.520;10.528;2023-03-31T15:04:11;5.80;;;2.65;;
76380;SDS011;65202;52.520;10.528;2023-03-31T15:06:44;5.30;;;1.92;;
76380;SDS011;65202;52.520;10.528;2023-03-31T15:09:18;6.45;;;2.22;;
76380;SDS011;65202;52.520;10.528;2023-03-31T15:11:57;4.72;;;2.70;;
76380;SDS011;65202;52.520;10.528;2023-03-31T15:14:29;6.15;;;2.42;;
76380;SDS011;65202;52.520;10.528;2023-03-31T15:17:00;7.32;;;2.30;;
76380;SDS011;65202;52.520;10.528;2023-03-31T15:19:28;12.65;;;5.50;;
76380;SDS011;65202;52.520;10.528;2023-03-31T15:22:01;8.15;;;3.05;;
76380;SDS011;65202;52.520;10.528;2023-03-31T15:24:42;15.07;;;6.20;;
76380;SDS011;65202;52.520;10.528;2023-03-31T15:30:07;16.50;;;7.80;;
76380;SDS011;65202;52.520;10.528;2023-03-31T15:32:43;6.97;;;3.03;;
76380;SDS011;65202;52.520;10.528;2023-03-31T15:35:30;12.07;;;3.13;;
76380;SDS011;65202;52.520;10.528;2023-03-31T15:38:02;17.45;;;7.32;;
76380;SDS011;65202;52.520;10.528;2023-03-31T15:40:35;12.13;;;4.95;;
76380;SDS011;65202;52.520;10.528;2023-03-31T15:43:16;6.50;;;2.90;;
76380;SDS011;65202;52.520;10.528;2023-03-31T15:46:00;6.75;;;2.92;;
76380;SDS011;65202;52.520;10.528;2023-03-31T15:48:28;12.82;;;3.50;;
76380;SDS011;65202;52.520;10.528;2023-03-31T15:51:00;12.38;;;3.13;;
76380;SDS011;65202;52.520;10.528;2023-03-31T15:53:43;6.35;;;2.30;;
76380;SDS011;65202;52.520;10.528;2023-03-31T15:56:23;10.15;;;2.58;;
76380;SDS011;65202;52.520;10.528;2023-03-31T15:58:54;6.55;;;2.20;;
76380;SDS011;65202;52.520;10.528;2023-03-31T16:01:29;7.50;;;2.00;;
76380;SDS011;65202;52.520;10.528;2023-03-31T16:04:04;7.68;;;2.38;;
76380;SDS011;65202;52.520;10.528;2023-03-31T16:06:53;8.82;;;2.03;;
76380;SDS011;65202;52.520;10.528;2023-03-31T16:09:28;8.05;;;2.05;;
76380;SDS011;65202;52.520;10.528;2023-03-31T16:15:15;10.85;;;2.60;;
76380;SDS011;65202;52.520;10.528;2023-03-31T16:18:13;8.35;;;2.80;;
76380;SDS011;65202;52.520;10.528;2023-03-31T16:21:05;11.75;;;3.53;;
76380;SDS011;65202;52.520;10.528;2023-03-31T16:23:38;11.00;;;3.30;;
76380;SDS011;65202;52.520;10.528;2023-03-31T16:26:07;10.93;;;4.25;;
76380;SDS011;65202;52.520;10.528;2023-03-31T16:28:35;9.55;;;4.00;;
76380;SDS011;65202;52.520;10.528;2023-03-31T16:31:04;12.38;;;5.13;;
76380;SDS011;65202;52.520;10.528;2023-03-31T16:34:00;12.85;;;3.72;;
76380;SDS011;65202;52.520;10.528;2023-03-31T16:36:31;11.13;;;4.63;;
76380;SDS011;65202;52.520;10.528;2023-03-31T16:38:58;16.50;;;6.90;;
76380;SDS011;65202;52.520;10.528;2023-03-31T16:41:28;12.95;;;5.45;;
76380;SDS011;65202;52.520;10.528;2023-03-31T16:43:55;9.82;;;4.03;;
76380;SDS011;65202;52.520;10.528;2023-03-31T16:46:23;11.00;;;4.15;;
76380;SDS011;65202;52.520;10.528;2023-03-31T16:48:51;26.80;;;13.10;;
76380;SDS011;65202;52.520;10.528;2023-03-31T16:51:19;11.85;;;5.20;;
76380;SDS011;65202;52.520;10.528;2023-03-31T16:53:47;9.38;;;3.40;;
76380;SDS011;65202;52.520;10.528;2023-03-31T16:56:14;12.50;;;4.90;;
76380;SDS011;65202;52.520;10.528;2023-03-31T16:58:42;8.00;;;4.10;;
76380;SDS011;65202;52.520;10.528;2023-03-31T17:01:09;10.55;;;4.55;;
76380;SDS011;65202;52.520;10.528;2023-03-31T17:03:38;10.60;;;5.10;;
76380;SDS011;65202;52.520;10.528;2023-03-31T17:06:09;6.75;;;2.83;;
76380;SDS011;65202;52.520;10.528;2023-03-31T17:08:39;6.72;;;2.35;;
76380;SDS011;65202;52.520;10.528;2023-03-31T17:11:07;9.30;;;2.85;;
76380;SDS011;65202;52.520;10.528;2023-03-31T17:13:37;8.25;;;2.40;;
76380;SDS011;65202;52.520;10.528;2023-03-31T17:16:07;7.03;;;3.50;;
76380;SDS011;65202;52.520;10.528;2023-03-31T17:18:50;6.87;;;3.07;;
76380;SDS011;65202;52.520;10.528;2023-03-31T17:21:18;14.25;;;6.07;;
76380;SDS011;65202;52.520;10.528;2023-03-31T17:23:46;24.80;;;12.15;;
76380;SDS011;65202;52.520;10.528;2023-03-31T17:26:14;8.52;;;3.47;;
76380;SDS011;65202;52.520;10.528;2023-03-31T17:28:42;7.03;;;2.88;;
76380;SDS011;65202;52.520;10.528;2023-03-31T17:31:17;15.65;;;5.72;;
76380;SDS011;65202;52.520;10.528;2023-03-31T17:33:47;16.58;;;9.68;;
76380;SDS011;65202;52.520;10.528;2023-03-31T17:36:15;15.43;;;8.07;;
76380;SDS011;65202;52.520;10.528;2023-03-31T17:38:42;17.35;;;10.20;;
76380;SDS011;65202;52.520;10.528;2023-03-31T17:41:11;11.60;;;5.47;;
76380;SDS011;65202;52.520;10.528;2023-03-31T17:43:42;20.58;;;11.30;;
76380;SDS011;65202;52.520;10.528;2023-03-31T17:46:11;55.88;;;30.63;;
76380;SDS011;65202;52.520;10.528;2023-03-31T17:48:40;45.45;;;27.23;;
76380;SDS011;65202;52.520;10.528;2023-03-31T17:51:10;56.13;;;34.03;;